Terminal Aerodrome Forecast
Issued by NWS

Home | Current Version | Previous Version | Text Only | Print | Product List | Glossary On
Versions: 1 2 3 4 5 6 7 8 9 10 11 12
000
FTPA31 PHFO 272337
TAFHNY
TAF
PHNY 272337Z 2800/2824 26006KT P6SM VCSH BKN020 BKN035 BKN250
     FM280400 05008KT P6SM SCT020 BKN035 BKN180
     FM281900 25006KT P6SM VCSH BKN020 BKN035 BKN150
      AMD LTD TO VIS AND WIND=

USA.gov is the U.S. government's official web portal to all federal, state and local government web resources and services.